Time;durP1;ratioP1;P1;durP2;ratioP2;P2;SDS_P1;SDS_P2;PMS_P1;PMS_P2;Temp;Humidity;BMP_temperature;BMP_pressure;BME280_temperature;BME280_humidity;BME280_pressure;Samples;Min_cycle;Max_cycle;Signal;HPM_P1;HPM_P2
2021/05/01 00:01:22;;;;;;;29.08;26.02;;;;;;;;;;3616324;39;20140;-56
2021/05/01 00:03:47;;;;;;;32.95;27.50;;;;;;;;;;3615688;39;20035;-55
2021/05/01 00:06:13;;;;;;;30.23;27.05;;;;;;;;;;3616685;39;20027;-57
2021/05/01 00:08:38;;;;;;;32.42;26.88;;;;;;;;;;3616613;39;20055;-58
2021/05/01 00:11:04;;;;;;;32.03;28.55;;;;;;;;;;3615111;39;20026;-57
2021/05/01 00:13:31;;;;;;;31.15;27.58;;;;;;;;;;3616501;39;20034;-56
2021/05/01 00:15:58;;;;;;;30.20;26.92;;;;;;;;;;3616594;39;20035;-54
2021/05/01 00:18:23;;;;;;;32.25;27.42;;;;;;;;;;3616318;39;20059;-56
2021/05/01 00:20:49;;;;;;;34.55;30.77;;;;;;;;;;3606719;39;20039;-56
2021/05/01 00:23:14;;;;;;;33.42;29.83;;;;;;;;;;3616443;39;20043;-55
2021/05/01 00:25:40;;;;;;;33.85;29.30;;;;;;;;;;3616271;39;20442;-58
2021/05/01 00:28:05;;;;;;;34.78;31.25;;;;;;;;;;3616418;39;20023;-58
2021/05/01 00:30:31;;;;;;;33.53;29.90;;;;;;;;;;3615753;39;20034;-54
2021/05/01 00:32:57;;;;;;;32.80;29.20;;;;;;;;;;3616445;39;20043;-57
2021/05/01 00:35:23;;;;;;;33.72;30.17;;;;;;;;;;3616581;39;20049;-56
2021/05/01 00:37:49;;;;;;;35.40;30.45;;;;;;;;;;3616091;39;20454;-58
2021/05/01 00:40:15;;;;;;;38.63;30.60;;;;;;;;;;3615788;39;20035;-55
2021/05/01 00:42:40;;;;;;;33.05;29.23;;;;;;;;;;3616125;39;20063;-57
2021/05/01 00:45:06;;;;;;;36.35;30.55;;;;;;;;;;3606985;39;20035;-57
2021/05/01 00:47:32;;;;;;;35.03;31.23;;;;;;;;;;3615743;39;20047;-56
2021/05/01 00:49:57;;;;;;;32.03;28.77;;;;;;;;;;3616437;39;20031;-55
2021/05/01 00:52:23;;;;;;;35.40;31.65;;;;;;;;;;3616521;39;20035;-56
2021/05/01 00:54:48;;;;;;;34.25;30.20;;;;;;;;;;3616403;39;20381;-58
2021/05/01 00:57:14;;;;;;;35.10;29.42;;;;;;;;;;3617612;39;20035;-58
2021/05/01 00:59:39;;;;;;;35.35;30.42;;;;;;;;;;3616990;39;20050;-56
2021/05/01 01:02:05;;;;;;;37.45;30.40;;;;;;;;;;3616679;39;20039;-56
2021/05/01 01:04:31;;;;;;;32.78;29.52;;;;;;;;;;3617706;39;20146;-56
2021/05/01 01:06:57;;;;;;;32.67;29.20;;;;;;;;;;3617623;39;20050;-56
2021/05/01 01:09:23;;;;;;;39.55;33.38;;;;;;;;;;3617807;39;20035;-57
2021/05/01 01:11:48;;;;;;;36.03;32.35;;;;;;;;;;3617180;39;20374;-56
2021/05/01 01:14:14;;;;;;;34.58;30.88;;;;;;;;;;3617562;39;20035;-58
2021/05/01 01:16:44;;;;;;;36.42;32.60;;;;;;;;;;3617336;39;20123;-56
2021/05/01 01:19:10;;;;;;;36.22;31.70;;;;;;;;;;3617686;39;20038;-57
2021/05/01 01:21:43;;;;;;;38.85;33.55;;;;;;;;;;3616603;39;20019;-56
2021/05/01 01:24:10;;;;;;;37.40;33.35;;;;;;;;;;3616608;39;20038;-57
2021/05/01 01:26:37;;;;;;;35.90;32.00;;;;;;;;;;3617450;39;20050;-52
2021/05/01 01:29:02;;;;;;;38.85;34.97;;;;;;;;;;3617261;39;20030;-55
2021/05/01 01:31:28;;;;;;;38.40;34.22;;;;;;;;;;3617492;39;20047;-57
2021/05/01 01:33:53;;;;;;;39.00;34.85;;;;;;;;;;3617849;39;20472;-58
2021/05/01 01:36:18;;;;;;;38.85;34.92;;;;;;;;;;3617775;39;20054;-57
2021/05/01 01:38:44;;;;;;;40.50;34.65;;;;;;;;;;3616954;39;20038;-56
2021/05/01 01:41:09;;;;;;;37.33;33.55;;;;;;;;;;3617484;39;20038;-55
2021/05/01 01:43:37;;;;;;;37.92;33.85;;;;;;;;;;3617585;39;20355;-55
2021/05/01 01:46:02;;;;;;;37.85;33.80;;;;;;;;;;3617332;39;20035;-56
2021/05/01 01:48:28;;;;;;;39.63;34.60;;;;;;;;;;3617417;39;20123;-56
2021/05/01 01:50:53;;;;;;;37.65;33.75;;;;;;;;;;3617266;39;20051;-57
2021/05/01 01:53:20;;;;;;;37.53;33.60;;;;;;;;;;3617422;39;20039;-56
2021/05/01 01:55:45;;;;;;;36.47;32.88;;;;;;;;;;3617213;39;20327;-53
2021/05/01 01:58:11;;;;;;;39.17;34.97;;;;;;;;;;3617291;39;20035;-57
2021/05/01 02:00:36;;;;;;;41.67;36.85;;;;;;;;;;3608324;39;20028;-57
2021/05/01 02:03:02;;;;;;;40.63;36.53;;;;;;;;;;3617653;39;20258;-57
2021/05/01 02:05:27;;;;;;;39.97;35.60;;;;;;;;;;3616496;39;20066;-57
2021/05/01 02:07:53;;;;;;;39.95;35.80;;;;;;;;;;3617195;39;20061;-53
2021/05/01 02:10:19;;;;;;;39.15;35.10;;;;;;;;;;3616872;39;20033;-57
2021/05/01 02:12:45;;;;;;;41.53;35.90;;;;;;;;;;3617432;39;20027;-56
2021/05/01 02:15:12;;;;;;;41.22;36.67;;;;;;;;;;3616648;39;20042;-56
2021/05/01 02:17:40;;;;;;;38.63;33.67;;;;;;;;;;3607714;39;20035;-56
2021/05/01 02:20:07;;;;;;;42.85;36.70;;;;;;;;;;3617760;39;20027;-58
2021/05/01 02:22:34;;;;;;;38.85;34.95;;;;;;;;;;3617116;39;20301;-58
2021/05/01 02:24:59;;;;;;;40.15;35.90;;;;;;;;;;3616786;39;20125;-55
2021/05/01 02:27:25;;;;;;;39.00;34.80;;;;;;;;;;3617334;39;20047;-57
2021/05/01 02:29:50;;;;;;;39.80;35.63;;;;;;;;;;3616733;39;20539;-55
2021/05/01 02:32:15;;;;;;;37.75;33.88;;;;;;;;;;3615654;39;20061;-56
2021/05/01 02:34:41;;;;;;;40.63;36.33;;;;;;;;;;3617172;39;20035;-57
2021/05/01 02:37:07;;;;;;;40.72;35.05;;;;;;;;;;3614602;39;20046;-55
2021/05/01 02:39:32;;;;;;;43.60;35.88;;;;;;;;;;3616919;39;20036;-56
2021/05/01 02:41:58;;;;;;;39.58;35.33;;;;;;;;;;3617081;39;20031;-57
2021/05/01 02:44:24;;;;;;;49.55;38.60;;;;;;;;;;3616699;39;20123;-57
2021/05/01 02:46:49;;;;;;;39.45;35.33;;;;;;;;;;3616773;39;20039;-57
2021/05/01 02:49:15;;;;;;;44.30;36.67;;;;;;;;;;3617015;39;20031;-56
2021/05/01 02:51:40;;;;;;;46.35;35.15;;;;;;;;;;3617105;39;20032;-56
2021/05/01 02:54:06;;;;;;;40.38;36.13;;;;;;;;;;3617222;39;20029;-56
2021/05/01 02:56:31;;;;;;;41.42;36.70;;;;;;;;;;3615329;39;20321;-56
2021/05/01 02:58:56;;;;;;;41.65;35.95;;;;;;;;;;3617024;39;20661;-57
2021/05/01 03:01:22;;;;;;;40.50;34.60;;;;;;;;;;3617170;39;20067;-55
2021/05/01 03:03:47;;;;;;;40.22;35.92;;;;;;;;;;3616501;39;20103;-57
2021/05/01 03:06:14;;;;;;;43.20;38.72;;;;;;;;;;3616986;39;20039;-57
2021/05/01 03:08:40;;;;;;;41.30;36.90;;;;;;;;;;3617368;39;20036;-55
2021/05/01 03:11:05;;;;;;;39.58;35.42;;;;;;;;;;3617252;39;20401;-54
2021/05/01 03:13:30;;;;;;;42.83;36.40;;;;;;;;;;3615683;39;20039;-54
2021/05/01 03:15:56;;;;;;;49.10;37.13;;;;;;;;;;3616806;39;20282;-57
2021/05/01 03:18:21;;;;;;;40.40;36.00;;;;;;;;;;3616912;39;20050;-57
2021/05/01 03:20:49;;;;;;;40.90;36.65;;;;;;;;;;3616150;39;20035;-55
2021/05/01 03:23:14;;;;;;;42.83;37.17;;;;;;;;;;3607811;39;20416;-55
2021/05/01 03:25:39;;;;;;;40.65;36.22;;;;;;;;;;3617096;39;20035;-55
2021/05/01 03:28:05;;;;;;;44.58;38.63;;;;;;;;;;3607511;39;20031;-57
2021/05/01 03:30:30;;;;;;;40.75;36.33;;;;;;;;;;3616398;39;20023;-57
2021/05/01 03:32:56;;;;;;;45.20;38.15;;;;;;;;;;3616868;39;20501;-56
2021/05/01 03:35:21;;;;;;;40.80;36.47;;;;;;;;;;3616506;39;20035;-57
2021/05/01 03:37:48;;;;;;;43.05;38.35;;;;;;;;;;3616548;39;20035;-56
2021/05/01 03:40:14;;;;;;;42.35;37.25;;;;;;;;;;3616403;39;20029;-55
2021/05/01 03:42:40;;;;;;;41.75;37.35;;;;;;;;;;3616993;39;20083;-57
2021/05/01 03:45:08;;;;;;;41.08;36.45;;;;;;;;;;3616884;39;20036;-57
2021/05/01 03:47:34;;;;;;;44.03;37.30;;;;;;;;;;3615895;39;20031;-57
2021/05/01 03:49:59;;;;;;;43.50;36.92;;;;;;;;;;3607251;39;20030;-56
2021/05/01 03:52:25;;;;;;;44.05;37.40;;;;;;;;;;3616619;39;20139;-55
2021/05/01 03:54:51;;;;;;;43.38;38.78;;;;;;;;;;3616208;39;20043;-57
2021/05/01 03:57:16;;;;;;;40.50;36.22;;;;;;;;;;3607150;39;20046;-56
2021/05/01 03:59:41;;;;;;;42.47;37.28;;;;;;;;;;3617059;39;20286;-56
2021/05/01 04:02:07;;;;;;;40.85;36.40;;;;;;;;;;3616798;39;20043;-55
2021/05/01 04:04:33;;;;;;;41.10;36.70;;;;;;;;;;3615099;39;20465;-55
2021/05/01 04:06:58;;;;;;;42.60;38.15;;;;;;;;;;3616550;39;20046;-56
2021/05/01 04:09:23;;;;;;;43.53;38.33;;;;;;;;;;3616859;39;20122;-55
2021/05/01 04:11:49;;;;;;;42.95;37.30;;;;;;;;;;3615825;39;20038;-55
2021/05/01 04:14:15;;;;;;;43.50;38.53;;;;;;;;;;3616086;39;20119;-55
2021/05/01 04:16:40;;;;;;;43.50;37.58;;;;;;;;;;3615209;39;20039;-56
2021/05/01 04:19:05;;;;;;;43.92;36.88;;;;;;;;;;3616337;39;20115;-56
2021/05/01 04:21:31;;;;;;;41.67;37.38;;;;;;;;;;3615921;39;20079;-56
2021/05/01 04:23:56;;;;;;;41.05;36.35;;;;;;;;;;3616353;39;20440;-55
2021/05/01 04:26:22;;;;;;;47.28;37.67;;;;;;;;;;3607076;39;20031;-57
2021/05/01 04:28:48;;;;;;;38.35;34.42;;;;;;;;;;3616573;39;20038;-55
2021/05/01 04:31:13;;;;;;;39.03;34.90;;;;;;;;;;3617339;39;20028;-54
2021/05/01 04:33:39;;;;;;;39.72;35.42;;;;;;;;;;3617436;39;20120;-57
2021/05/01 04:36:04;;;;;;;38.80;34.63;;;;;;;;;;3617994;39;20035;-58
2021/05/01 04:38:30;;;;;;;39.47;34.13;;;;;;;;;;3615883;39;20034;-57
2021/05/01 04:40:56;;;;;;;38.92;34.67;;;;;;;;;;3618275;39;20031;-56
2021/05/01 04:43:24;;;;;;;43.13;34.75;;;;;;;;;;3617834;39;20578;-55
2021/05/01 04:45:50;;;;;;;38.05;34.13;;;;;;;;;;3616969;39;20525;-57
2021/05/01 04:48:16;;;;;;;37.25;32.80;;;;;;;;;;3617511;39;20185;-54
2021/05/01 04:50:41;;;;;;;44.95;33.97;;;;;;;;;;3617852;39;20031;-55
2021/05/01 04:53:06;;;;;;;38.45;33.95;;;;;;;;;;3617948;39;20145;-55
2021/05/01 04:55:32;;;;;;;39.17;34.53;;;;;;;;;;3617046;39;20051;-55
2021/05/01 04:57:58;;;;;;;34.78;31.02;;;;;;;;;;3617879;39;20043;-55
2021/05/01 05:00:24;;;;;;;34.33;30.60;;;;;;;;;;3617746;39;20375;-55
2021/05/01 05:02:50;;;;;;;38.15;34.00;;;;;;;;;;3608170;39;20373;-54
2021/05/01 05:05:16;;;;;;;39.70;32.67;;;;;;;;;;3616749;39;20046;-56
2021/05/01 05:07:42;;;;;;;43.53;35.50;;;;;;;;;;3617481;39;20035;-56
2021/05/01 05:10:09;;;;;;;35.88;32.00;;;;;;;;;;3618143;39;20541;-57
2021/05/01 05:12:35;;;;;;;38.90;33.50;;;;;;;;;;3617298;39;20035;-57
2021/05/01 05:15:02;;;;;;;35.95;32.28;;;;;;;;;;3615216;39;20031;-56
2021/05/01 05:17:27;;;;;;;38.25;34.10;;;;;;;;;;3618020;39;20031;-56
2021/05/01 05:19:53;;;;;;;39.70;35.58;;;;;;;;;;3617502;39;20031;-55
2021/05/01 05:22:18;;;;;;;39.03;34.85;;;;;;;;;;3616491;39;20128;-54
2021/05/01 05:24:44;;;;;;;37.90;33.72;;;;;;;;;;3615919;39;20031;-55
2021/05/01 05:27:09;;;;;;;43.20;35.83;;;;;;;;;;3617658;39;20451;-56
2021/05/01 05:29:35;;;;;;;41.33;36.35;;;;;;;;;;3617514;39;20050;-55
2021/05/01 05:32:03;;;;;;;39.25;35.25;;;;;;;;;;3616125;39;20031;-56
2021/05/01 05:34:29;;;;;;;43.80;37.38;;;;;;;;;;3617515;39;20039;-57
2021/05/01 05:36:54;;;;;;;48.65;42.30;;;;;;;;;;3617075;39;20065;-54
2021/05/01 05:39:20;;;;;;;45.15;39.47;;;;;;;;;;3617616;39;20039;-54
2021/05/01 05:41:45;;;;;;;48.05;43.03;;;;;;;;;;3617006;39;20061;-57
2021/05/01 05:44:11;;;;;;;45.85;41.03;;;;;;;;;;3617557;39;20032;-56
2021/05/01 05:46:37;;;;;;;41.17;36.42;;;;;;;;;;3617211;39;20055;-57
2021/05/01 05:49:03;;;;;;;44.03;39.50;;;;;;;;;;3616753;39;20063;-57
2021/05/01 05:51:29;;;;;;;38.28;34.20;;;;;;;;;;3617230;39;21002;-58
2021/05/01 05:53:54;;;;;;;38.25;30.63;;;;;;;;;;3617421;39;20055;-56
2021/05/01 05:56:20;;;;;;;32.60;28.42;;;;;;;;;;3617185;39;20050;-57
2021/05/01 05:58:47;;;;;;;32.30;27.83;;;;;;;;;;3617178;39;20067;-54
2021/05/01 06:01:13;;;;;;;28.52;24.95;;;;;;;;;;3617085;39;20049;-57
2021/05/01 06:03:39;;;;;;;38.78;28.60;;;;;;;;;;3607500;39;20039;-55
2021/05/01 06:06:09;;;;;;;28.30;25.38;;;;;;;;;;3606819;39;20061;-54
2021/05/01 06:08:34;;;;;;;28.08;23.58;;;;;;;;;;3616280;39;20031;-57
2021/05/01 06:11:03;;;;;;;30.25;24.55;;;;;;;;;;3617451;39;20023;-56
2021/05/01 06:13:31;;;;;;;29.38;23.95;;;;;;;;;;3618075;39;20035;-55
2021/05/01 06:15:58;;;;;;;39.15;35.15;;;;;;;;;;3616094;39;20032;-55
2021/05/01 06:18:26;;;;;;;27.27;24.33;;;;;;;;;;3616909;39;20043;-54
2021/05/01 06:20:52;;;;;;;28.23;24.13;;;;;;;;;;3617007;39;20031;-57
2021/05/01 06:23:18;;;;;;;24.77;22.02;;;;;;;;;;3616944;39;20034;-53
2021/05/01 06:25:48;;;;;;;26.48;23.67;;;;;;;;;;3616950;39;20035;-54
2021/05/01 06:28:16;;;;;;;29.42;22.00;;;;;;;;;;3616956;39;20036;-54
2021/05/01 06:30:43;;;;;;;23.83;21.05;;;;;;;;;;3616913;39;20035;-57
2021/05/01 06:33:11;;;;;;;21.58;18.13;;;;;;;;;;3606698;39;20037;-57
2021/05/01 06:35:38;;;;;;;23.77;19.00;;;;;;;;;;3615059;39;20034;-56
2021/05/01 06:38:03;;;;;;;20.10;17.88;;;;;;;;;;3614707;39;20035;-52
2021/05/01 06:40:35;;;;;;;20.77;18.05;;;;;;;;;;3616522;39;20047;-54
2021/05/01 06:43:14;;;;;;;21.70;18.55;;;;;;;;;;3616719;39;20040;-52
2021/05/01 06:45:41;;;;;;;22.00;19.70;;;;;;;;;;3616843;39;20027;-54
2021/05/01 06:48:10;;;;;;;20.02;18.02;;;;;;;;;;3614898;39;20402;-55
2021/05/01 06:50:37;;;;;;;24.15;19.38;;;;;;;;;;3616113;39;20164;-54
2021/05/01 06:53:02;;;;;;;21.25;19.02;;;;;;;;;;3615497;39;20123;-56
2021/05/01 06:55:30;;;;;;;25.25;19.70;;;;;;;;;;3615954;39;20286;-57
2021/05/01 06:57:58;;;;;;;20.70;17.08;;;;;;;;;;3617022;39;20058;-57
2021/05/01 07:00:25;;;;;;;15.35;13.80;;;;;;;;;;3616786;39;20462;-56
2021/05/01 07:03:11;;;;;;;16.13;14.25;;;;;;;;;;3615411;39;20112;-54
2021/05/01 07:05:37;;;;;;;20.25;14.27;;;;;;;;;;3616809;39;20043;-57
2021/05/01 07:08:03;;;;;;;15.40;13.73;;;;;;;;;;3617049;39;20023;-57
2021/05/01 07:10:28;;;;;;;14.70;13.20;;;;;;;;;;3616957;39;20042;-56
2021/05/01 07:12:54;;;;;;;15.98;12.93;;;;;;;;;;3616423;39;20067;-54
2021/05/01 07:15:20;;;;;;;13.90;12.40;;;;;;;;;;3616744;39;20051;-56
2021/05/01 07:17:51;;;;;;;17.30;12.93;;;;;;;;;;3617025;39;20046;-56
2021/05/01 07:20:17;;;;;;;19.17;12.95;;;;;;;;;;3616876;39;20038;-55
2021/05/01 07:22:42;;;;;;;19.55;13.23;;;;;;;;;;3616562;39;20035;-51
2021/05/01 07:25:11;;;;;;;14.65;12.60;;;;;;;;;;3616652;39;20143;-56
2021/05/01 07:27:49;;;;;;;18.58;12.80;;;;;;;;;;3616505;39;20027;-57
2021/05/01 07:30:16;;;;;;;15.98;12.70;;;;;;;;;;3615611;39;20273;-55
2021/05/01 07:32:43;;;;;;;15.52;12.77;;;;;;;;;;3615585;39;20392;-53
2021/05/01 07:35:11;;;;;;;14.30;12.80;;;;;;;;;;3616740;39;20275;-56
2021/05/01 07:37:40;;;;;;;15.48;12.77;;;;;;;;;;3616474;39;20071;-57
2021/05/01 07:40:11;;;;;;;21.55;12.48;;;;;;;;;;3616544;39;20072;-57
2021/05/01 07:42:38;;;;;;;13.48;12.07;;;;;;;;;;3616387;39;20286;-56
2021/05/01 07:45:05;;;;;;;15.63;12.50;;;;;;;;;;3616591;39;20042;-56
2021/05/01 07:47:32;;;;;;;14.85;12.35;;;;;;;;;;3615777;39;20023;-56
2021/05/01 07:49:58;;;;;;;15.02;12.30;;;;;;;;;;3617156;39;20139;-55
2021/05/01 07:52:24;;;;;;;16.70;12.55;;;;;;;;;;3616761;39;20362;-55
2021/05/01 07:54:50;;;;;;;16.00;11.95;;;;;;;;;;3616639;39;20035;-55
2021/05/01 07:57:15;;;;;;;17.48;12.27;;;;;;;;;;3616143;39;20104;-56
2021/05/01 07:59:40;;;;;;;15.90;12.55;;;;;;;;;;3615246;39;20024;-52
2021/05/01 08:02:06;;;;;;;14.45;11.98;;;;;;;;;;3616406;39;20023;-56
2021/05/01 08:04:32;;;;;;;12.93;11.60;;;;;;;;;;3616710;39;20029;-55
2021/05/01 08:06:58;;;;;;;15.13;13.38;;;;;;;;;;3618057;39;20046;-52
2021/05/01 08:09:24;;;;;;;13.85;12.02;;;;;;;;;;3618300;39;20057;-58
2021/05/01 08:11:50;;;;;;;15.18;12.75;;;;;;;;;;3618315;39;20350;-56
2021/05/01 08:14:15;;;;;;;14.45;12.05;;;;;;;;;;3616887;39;20616;-54
2021/05/01 08:16:41;;;;;;;16.40;12.52;;;;;;;;;;3617927;39;20030;-53
2021/05/01 08:19:06;;;;;;;15.85;12.40;;;;;;;;;;3617121;39;20058;-56
2021/05/01 08:21:34;;;;;;;13.95;12.07;;;;;;;;;;3618340;39;20027;-56
2021/05/01 08:24:01;;;;;;;14.18;12.35;;;;;;;;;;3617586;39;20038;-54
2021/05/01 08:26:26;;;;;;;14.38;12.23;;;;;;;;;;3617992;39;20050;-55
2021/05/01 08:28:52;;;;;;;14.23;12.65;;;;;;;;;;3618288;39;20024;-54
2021/05/01 08:31:17;;;;;;;17.52;12.65;;;;;;;;;;3617292;39;20292;-55
2021/05/01 08:33:42;;;;;;;14.10;11.82;;;;;;;;;;3617954;39;20064;-56
2021/05/01 08:36:08;;;;;;;15.48;12.63;;;;;;;;;;3618109;39;20024;-57
2021/05/01 08:38:36;;;;;;;13.68;11.68;;;;;;;;;;3617823;39;20401;-56
2021/05/01 08:41:04;;;;;;;14.38;12.60;;;;;;;;;;3617111;39;20031;-57
2021/05/01 08:43:29;;;;;;;18.33;12.52;;;;;;;;;;3617798;39;20385;-56
2021/05/01 08:45:54;;;;;;;13.45;12.05;;;;;;;;;;3617773;39;20050;-56
2021/05/01 08:48:21;;;;;;;14.98;12.68;;;;;;;;;;3617737;39;20039;-57
2021/05/01 08:50:50;;;;;;;15.65;12.88;;;;;;;;;;3617463;39;20035;-56
2021/05/01 08:53:15;;;;;;;13.27;11.90;;;;;;;;;;3617032;39;20031;-56
2021/05/01 08:55:41;;;;;;;15.98;12.57;;;;;;;;;;3617631;39;20061;-57
2021/05/01 08:58:09;;;;;;;21.17;12.70;;;;;;;;;;3617273;39;20027;-57
2021/05/01 09:00:37;;;;;;;16.85;13.32;;;;;;;;;;3617799;39;20039;-58
2021/05/01 09:03:05;;;;;;;21.38;12.85;;;;;;;;;;3617959;39;20043;-58
2021/05/01 09:05:31;;;;;;;17.02;12.85;;;;;;;;;;3616696;39;20027;-56
2021/05/01 09:07:58;;;;;;;17.33;13.10;;;;;;;;;;3617547;39;20051;-57
2021/05/01 09:10:24;;;;;;;14.80;13.18;;;;;;;;;;3617640;39;20046;-58
2021/05/01 09:12:49;;;;;;;15.95;13.70;;;;;;;;;;3617323;39;20035;-58
2021/05/01 09:15:22;;;;;;;20.67;15.82;;;;;;;;;;3616484;39;20287;-58
2021/05/01 09:17:57;;;;;;;16.13;13.98;;;;;;;;;;3617169;39;20500;-63
2021/05/01 09:20:23;;;;;;;16.88;13.57;;;;;;;;;;3617332;39;20031;-61
2021/05/01 09:23:02;;;;;;;16.30;13.32;;;;;;;;;;3616732;39;20035;-57
2021/05/01 09:25:33;;;;;;;16.15;14.45;;;;;;;;;;3616996;39;20031;-56
2021/05/01 09:28:03;;;;;;;;;;;;;;;;;;3618309;39;20115;-57
2021/05/01 09:30:31;;;;;;;14.95;12.52;;;;;;;;;;3617397;39;20693;-58
2021/05/01 09:33:26;;;;;;;17.67;13.57;;;;;;;;;;3617388;39;20072;-56
2021/05/01 09:36:00;;;;;;;18.88;13.75;;;;;;;;;;3601860;39;20135;-57
2021/05/01 09:38:36;;;;;;;15.50;13.90;;;;;;;;;;3617444;39;20034;-57
2021/05/01 09:41:11;;;;;;;21.23;14.27;;;;;;;;;;3616737;39;20073;-58
2021/05/01 09:43:53;;;;;;;16.75;13.07;;;;;;;;;;3617307;39;20075;-57
2021/05/01 09:46:19;;;;;;;15.60;13.23;;;;;;;;;;3617286;39;20035;-57
2021/05/01 09:49:01;;;;;;;15.02;13.20;;;;;;;;;;3617140;39;20050;-58
2021/05/01 09:51:31;;;;;;;14.90;13.30;;;;;;;;;;3617146;39;20042;-58
2021/05/01 09:53:59;;;;;;;15.65;13.75;;;;;;;;;;3617535;39;20067;-58
2021/05/01 09:56:24;;;;;;;17.33;12.90;;;;;;;;;;3617315;39;20393;-58
2021/05/01 09:58:52;;;;;;;15.27;12.25;;;;;;;;;;3617039;39;20049;-58
2021/05/01 10:01:18;;;;;;;14.88;12.27;;;;;;;;;;3617712;39;20046;-57
2021/05/01 10:03:43;;;;;;;15.27;11.45;;;;;;;;;;3617416;39;20039;-58
2021/05/01 10:06:14;;;;;;;13.85;12.45;;;;;;;;;;3614878;39;20043;-58
2021/05/01 10:08:39;;;;;;;15.68;13.25;;;;;;;;;;3617204;39;20392;-58
2021/05/01 10:11:10;;;;;;;15.32;12.20;;;;;;;;;;3616233;39;20031;-58
2021/05/01 10:13:46;;;;;;;13.32;11.95;;;;;;;;;;3617302;39;20043;-58
2021/05/01 10:16:11;;;;;;;21.33;13.65;;;;;;;;;;3616874;39;20067;-57
2021/05/01 10:18:37;;;;;;;21.05;13.02;;;;;;;;;;3617611;39;20024;-57
2021/05/01 10:21:02;;;;;;;15.63;12.52;;;;;;;;;;3616437;39;20027;-57
2021/05/01 10:23:27;;;;;;;13.13;11.45;;;;;;;;;;3617059;39;20035;-57
2021/05/01 10:26:10;;;;;;;12.90;11.32;;;;;;;;;;3617048;39;20065;-56
2021/05/01 10:28:50;;;;;;;15.07;12.15;;;;;;;;;;3615504;39;20045;-56
2021/05/01 10:31:19;;;;;;;14.75;12.70;;;;;;;;;;3617251;39;20023;-60
2021/05/01 10:33:46;;;;;;;20.10;13.00;;;;;;;;;;3616849;39;20027;-57
2021/05/01 10:36:26;;;;;;;15.75;12.98;;;;;;;;;;3616641;39;20028;-57
2021/05/01 10:39:07;;;;;;;15.15;12.40;;;;;;;;;;3617466;39;20042;-57
2021/05/01 10:41:35;;;;;;;16.05;13.30;;;;;;;;;;3617319;39;20493;-59
2021/05/01 10:44:02;;;;;;;15.32;12.50;;;;;;;;;;3616828;39;20114;-55
2021/05/01 10:46:30;;;;;;;13.93;12.18;;;;;;;;;;3616568;39;20035;-59
2021/05/01 10:48:58;;;;;;;15.70;12.40;;;;;;;;;;3617439;39;20031;-60
2021/05/01 10:51:26;;;;;;;15.50;13.02;;;;;;;;;;3617079;39;20047;-58
2021/05/01 10:54:13;;;;;;;15.10;12.93;;;;;;;;;;3605329;39;20275;-59
2021/05/01 10:56:45;;;;;;;14.10;11.82;;;;;;;;;;3616162;39;20057;-56
2021/05/01 10:59:14;;;;;;;15.00;13.50;;;;;;;;;;3616479;39;20039;-58
2021/05/01 11:01:48;;;;;;;16.60;11.77;;;;;;;;;;3616631;39;20134;-59
2021/05/01 11:04:23;;;;;;;14.35;12.73;;;;;;;;;;3616329;39;20076;-58
2021/05/01 11:07:08;;;;;;;14.43;12.18;;;;;;;;;;3616761;39;20358;-58
2021/05/01 11:09:44;;;;;;;14.45;12.32;;;;;;;;;;3616795;39;20024;-57
2021/05/01 11:12:14;;;;;;;15.20;12.07;;;;;;;;;;3615751;39;20065;-55
2021/05/01 11:15:14;;;;;;;14.70;12.60;;;;;;;;;;3616563;39;20031;-57
2021/05/01 11:17:39;;;;;;;14.35;12.07;;;;;;;;;;3606399;39;20031;-58
2021/05/01 11:20:08;;;;;;;14.18;11.75;;;;;;;;;;3616453;39;20047;-57
2021/05/01 11:22:36;;;;;;;13.35;12.05;;;;;;;;;;3616851;39;20030;-57
2021/05/01 11:25:12;;;;;;;21.65;13.02;;;;;;;;;;3607092;39;20038;-54
2021/05/01 11:27:38;;;;;;;13.15;11.25;;;;;;;;;;3616607;39;20064;-56
2021/05/01 11:30:05;;;;;;;14.60;12.70;;;;;;;;;;3606217;39;20023;-56
2021/05/01 11:32:31;;;;;;;17.85;13.55;;;;;;;;;;3607028;39;20030;-55
2021/05/01 11:35:11;;;;;;;15.38;12.80;;;;;;;;;;3616434;39;20035;-58
2021/05/01 11:37:47;;;;;;;12.45;10.95;;;;;;;;;;3616375;39;20043;-57
2021/05/01 11:40:14;;;;;;;15.63;12.25;;;;;;;;;;3616364;39;20042;-57
2021/05/01 11:42:42;;;;;;;14.68;11.00;;;;;;;;;;3616438;39;20027;-57
2021/05/01 11:45:23;;;;;;;18.67;12.63;;;;;;;;;;3616379;39;20067;-58
2021/05/01 11:47:51;;;;;;;12.13;10.77;;;;;;;;;;3615123;39;20542;-57
2021/05/01 11:50:19;;;;;;;13.02;10.35;;;;;;;;;;3616085;39;20119;-55
2021/05/01 11:52:59;;;;;;;15.18;10.77;;;;;;;;;;3616469;39;20046;-57
2021/05/01 11:55:30;;;;;;;13.40;11.73;;;;;;;;;;3614746;39;20035;-56
2021/05/01 11:57:57;;;;;;;13.35;11.52;;;;;;;;;;3616407;39;20110;-58
2021/05/01 12:00:40;;;;;;;15.05;12.43;;;;;;;;;;3616355;39;20398;-57
2021/05/01 12:03:23;;;;;;;15.90;12.85;;;;;;;;;;3616249;39;20030;-58
2021/05/01 12:05:59;;;;;;;18.13;13.00;;;;;;;;;;3614951;39;20571;-55
2021/05/01 12:08:26;;;;;;;21.50;14.60;;;;;;;;;;3616290;39;20420;-56
2021/05/01 12:10:57;;;;;;;26.33;13.20;;;;;;;;;;3616989;39;20084;-58
2021/05/01 12:13:34;;;;;;;18.83;14.48;;;;;;;;;;3614227;39;20039;-56
2021/05/01 12:16:01;;;;;;;15.88;14.18;;;;;;;;;;3615811;39;20040;-55
2021/05/01 12:18:56;;;;;;;16.70;13.57;;;;;;;;;;3615362;39;20055;-58
2021/05/01 12:21:29;;;;;;;15.80;13.05;;;;;;;;;;3605310;39;20031;-57
2021/05/01 12:23:58;;;;;;;14.45;13.00;;;;;;;;;;3615789;39;20051;-58
2021/05/01 12:26:36;;;;;;;16.25;13.45;;;;;;;;;;3615878;39;20116;-59
2021/05/01 12:29:24;;;;;;;13.55;12.15;;;;;;;;;;3615930;39;20639;-58
2021/05/01 12:31:58;;;;;;;15.25;12.50;;;;;;;;;;3615500;39;20035;-58
2021/05/01 12:34:46;;;;;;;16.25;13.27;;;;;;;;;;3613468;39;20043;-57
2021/05/01 12:37:12;;;;;;;12.35;10.73;;;;;;;;;;3615650;39;20028;-57
2021/05/01 12:39:39;;;;;;;13.95;11.65;;;;;;;;;;3615918;39;20043;-58
2021/05/01 12:42:28;;;;;;;11.85;10.07;;;;;;;;;;3614954;39;20031;-57
2021/05/01 12:44:54;;;;;;;13.55;12.15;;;;;;;;;;3614092;39;20367;-57
2021/05/01 12:47:35;;;;;;;13.93;12.45;;;;;;;;;;3614862;39;20051;-58
2021/05/01 12:50:17;;;;;;;13.20;11.15;;;;;;;;;;3616063;39;20035;-57
2021/05/01 12:52:43;;;;;;;17.98;14.45;;;;;;;;;;3617447;39;20031;-58
2021/05/01 12:55:10;;;;;;;16.27;11.88;;;;;;;;;;3617841;39;20454;-56
2021/05/01 12:57:37;;;;;;;14.80;12.02;;;;;;;;;;3615400;39;20105;-57
2021/05/01 13:00:25;;;;;;;16.58;13.25;;;;;;;;;;3617528;39;20067;-57
2021/05/01 13:03:13;;;;;;;16.40;14.00;;;;;;;;;;3616215;39;20035;-55
2021/05/01 13:05:41;;;;;;;14.35;12.80;;;;;;;;;;3616113;39;20046;-57
2021/05/01 13:08:07;;;;;;;16.88;12.60;;;;;;;;;;3616449;39;20074;-57
2021/05/01 13:10:33;;;;;;;14.18;12.68;;;;;;;;;;3615581;39;20347;-57
2021/05/01 13:13:07;;;;;;;18.98;12.88;;;;;;;;;;3617683;39;20366;-57
2021/05/01 13:15:57;;;;;;;19.77;15.27;;;;;;;;;;3617743;39;20037;-58
2021/05/01 13:18:23;;;;;;;20.40;16.63;;;;;;;;;;3617329;39;20392;-57
2021/05/01 13:21:03;;;;;;;17.88;15.55;;;;;;;;;;3617483;39;20034;-57
2021/05/01 13:23:35;;;;;;;;;;;;;;;;;;3618267;39;20023;-58
2021/05/01 13:26:00;;;;;;;;;;;;;;;;;;3616441;39;19943;-57
2021/05/01 13:28:25;;;;;;;18.65;16.65;;;;;;;;;;3617133;39;20023;-56
2021/05/01 13:30:51;;;;;;;21.08;17.73;;;;;;;;;;3617574;39;20278;-57
2021/05/01 13:33:16;;;;;;;19.30;17.05;;;;;;;;;;3617154;39;20051;-57
2021/05/01 13:35:42;;;;;;;21.45;17.70;;;;;;;;;;3616535;39;20036;-58
2021/05/01 13:38:07;;;;;;;25.73;17.52;;;;;;;;;;3617696;39;20063;-58
2021/05/01 13:40:38;;;;;;;21.08;16.85;;;;;;;;;;3617376;39;20046;-57
2021/05/01 13:43:09;;;;;;;21.10;17.45;;;;;;;;;;3617321;39;20035;-57
2021/05/01 13:45:49;;;;;;;19.63;17.52;;;;;;;;;;3616412;39;20115;-58
2021/05/01 13:48:19;;;;;;;20.75;16.55;;;;;;;;;;3616351;39;20051;-57
2021/05/01 13:50:46;;;;;;;21.27;16.75;;;;;;;;;;3617728;39;20043;-57
2021/05/01 13:53:19;;;;;;;19.88;16.38;;;;;;;;;;3614847;39;20036;-57
2021/05/01 13:55:46;;;;;;;23.25;18.13;;;;;;;;;;3616428;39;20077;-57
2021/05/01 13:58:16;;;;;;;19.15;15.73;;;;;;;;;;3617130;39;20061;-58
2021/05/01 14:00:42;;;;;;;18.87;16.73;;;;;;;;;;3617399;39;20043;-56
2021/05/01 14:03:18;;;;;;;20.25;15.35;;;;;;;;;;3616311;39;20265;-56
2021/05/01 14:05:49;;;;;;;20.80;16.45;;;;;;;;;;3617333;39;20035;-57
2021/05/01 14:08:15;;;;;;;;;;;;;;;;;;3617775;39;20031;-56
2021/05/01 14:10:42;;;;;;;21.40;17.70;;;;;;;;;;3617105;39;19937;-57
2021/05/01 14:13:23;;;;;;;21.70;19.35;;;;;;;;;;3616107;39;20027;-56
2021/05/01 14:15:51;;;;;;;21.38;17.65;;;;;;;;;;3616840;39;20159;-55
2021/05/01 14:18:18;;;;;;;19.75;17.65;;;;;;;;;;3617083;39;20123;-58
2021/05/01 14:20:50;;;;;;;19.77;17.17;;;;;;;;;;3614801;39;20124;-56
2021/05/01 14:23:17;;;;;;;20.60;16.40;;;;;;;;;;3617088;39;20035;-56
2021/05/01 14:25:44;;;;;;;21.60;16.83;;;;;;;;;;3615667;39;20093;-54